createdAt,value
2022-11-02T00:00:52.436Z,98136.01
2022-11-02T00:03:31.084Z,98137.27
2022-11-02T00:05:59.106Z,98134.21
2022-11-02T00:08:27.034Z,98137.44
2022-11-02T00:10:55.022Z,98138.70
2022-11-02T00:13:22.934Z,98141.73
2022-11-02T00:15:51.000Z,98140.44
2022-11-02T00:18:19.069Z,98144.33
2022-11-02T00:20:47.362Z,98143.13
2022-11-02T00:23:16.072Z,98143.34
2022-11-02T00:25:47.078Z,98134.94
2022-11-02T00:28:15.868Z,98125.89
2022-11-02T00:30:44.896Z,98124.96
2022-11-02T00:33:12.976Z,98122.52
2022-11-02T00:35:42.262Z,98123.06
2022-11-02T00:38:10.209Z,98121.11
2022-11-02T00:40:38.492Z,98119.09
2022-11-02T00:43:06.917Z,98121.58
2022-11-02T00:45:35.320Z,98120.30
2022-11-02T00:48:05.149Z,98112.98
2022-11-02T00:50:33.486Z,98112.83
2022-11-02T00:53:01.556Z,98115.13
2022-11-02T00:55:29.618Z,98119.14
2022-11-02T00:58:02.197Z,98111.90
2022-11-02T01:00:33.298Z,98115.33
2022-11-02T01:03:02.633Z,98112.63
2022-11-02T01:05:30.606Z,98112.93
2022-11-02T01:07:58.631Z,98113.06
2022-11-02T01:10:27.712Z,98108.18
2022-11-02T01:12:55.807Z,98107.85
2022-11-02T01:15:23.841Z,98113.78
2022-11-02T01:17:51.803Z,98120.80
2022-11-02T01:20:19.958Z,98125.66
2022-11-02T01:22:48.193Z,98127.21
2022-11-02T01:25:16.254Z,98125.74
2022-11-02T01:27:44.241Z,98129.69
2022-11-02T01:30:13.492Z,98125.39
2022-11-02T01:32:41.423Z,98119.52
2022-11-02T01:35:10.466Z,98123.27
2022-11-02T01:37:39.746Z,98122.98
2022-11-02T01:40:10.510Z,98129.80
2022-11-02T01:42:38.548Z,98127.14
2022-11-02T01:45:06.980Z,98126.64
2022-11-02T01:47:40.838Z,98128.67
2022-11-02T01:50:19.176Z,98130.20
2022-11-02T01:52:47.146Z,98127.48
2022-11-02T01:55:22.907Z,98121.71
2022-11-02T01:57:59.765Z,98122.91
2022-11-02T02:00:27.804Z,98125.56
2022-11-02T02:03:10.093Z,98119.75
2022-11-02T02:05:46.637Z,98122.44
2022-11-02T02:08:21.967Z,98124.41
2022-11-02T02:10:50.155Z,98120.00
2022-11-02T02:13:19.251Z,98126.81
2022-11-02T02:16:15.746Z,98130.73
2022-11-02T02:18:50.484Z,98123.90
2022-11-02T02:21:21.397Z,98130.46
2022-11-02T02:24:08.618Z,98128.34
2022-11-02T02:26:39.465Z,98127.64
2022-11-02T02:29:30.031Z,98128.65
2022-11-02T02:32:10.238Z,98121.85
2022-11-02T02:34:50.803Z,98123.09
2022-11-02T02:37:34.391Z,98124.01
2022-11-02T02:40:09.937Z,98125.28
2022-11-02T02:42:44.229Z,98127.81
2022-11-02T02:45:20.611Z,98123.24
2022-11-02T02:47:58.754Z,98120.45
2022-11-02T02:50:31.580Z,98118.54
2022-11-02T02:53:03.287Z,98114.70
2022-11-02T02:55:36.315Z,98112.36
2022-11-02T02:58:09.988Z,98111.84
2022-11-02T03:00:38.977Z,98110.96
2022-11-02T03:03:07.291Z,98115.14
2022-11-02T03:05:36.980Z,98112.70
2022-11-02T03:08:12.612Z,98110.77
2022-11-02T03:10:50.525Z,98121.05
2022-11-02T03:13:35.499Z,98123.23
2022-11-02T03:16:36.521Z,98123.95
2022-11-02T03:19:12.658Z,98128.18
2022-11-02T03:21:43.544Z,98130.87
2022-11-02T03:24:18.963Z,98129.38
2022-11-02T03:27:07.263Z,98129.92
2022-11-02T03:29:49.108Z,98127.09
2022-11-02T03:32:22.942Z,98125.73
2022-11-02T03:34:59.212Z,98120.15
2022-11-02T03:37:33.220Z,98120.06
2022-11-02T03:40:37.878Z,98115.91
2022-11-02T03:43:07.291Z,98126.91
2022-11-02T03:45:42.476Z,98126.86
2022-11-02T03:48:15.013Z,98123.72
2022-11-02T03:50:49.059Z,98124.22
2022-11-02T03:53:28.190Z,98127.36
2022-11-02T03:56:04.501Z,98132.70
2022-11-02T03:58:33.300Z,98137.10
2022-11-02T04:01:08.433Z,98136.31
2022-11-02T04:03:39.676Z,98133.95
2022-11-02T04:06:08.072Z,98131.11
2022-11-02T04:08:39.878Z,98127.64
2022-11-02T04:11:28.437Z,98130.55
2022-11-02T04:14:19.501Z,98137.67
2022-11-02T04:16:47.539Z,98138.79
2022-11-02T04:19:30.028Z,98141.91
2022-11-02T04:22:27.256Z,98139.78
2022-11-02T04:25:18.085Z,98135.44
2022-11-02T04:27:52.395Z,98138.01
2022-11-02T04:30:23.881Z,98139.70
2022-11-02T04:33:12.282Z,98134.11
2022-11-02T04:35:45.616Z,98139.39
2022-11-02T04:38:32.448Z,98141.78
2022-11-02T04:41:18.927Z,98143.79
2022-11-02T04:43:48.583Z,98143.77
2022-11-02T04:46:17.032Z,98145.73
2022-11-02T04:48:45.200Z,98142.27
2022-11-02T04:51:24.150Z,98140.36
2022-11-02T04:53:54.245Z,98139.23
2022-11-02T04:56:22.759Z,98139.74
2022-11-02T04:58:53.112Z,98139.21
2022-11-02T05:01:22.695Z,98145.29
2022-11-02T05:03:53.164Z,98151.56
2022-11-02T05:06:23.104Z,98156.89
2022-11-02T05:08:51.494Z,98154.14
2022-11-02T05:11:21.732Z,98157.98
2022-11-02T05:13:50.382Z,98163.78
2022-11-02T05:16:19.862Z,98166.51
2022-11-02T05:18:49.316Z,98167.17
2022-11-02T05:21:17.713Z,98169.61
2022-11-02T05:23:46.531Z,98175.70
2022-11-02T05:26:15.412Z,98176.45
2022-11-02T05:28:45.993Z,98181.33
2022-11-02T05:31:14.545Z,98183.87
2022-11-02T05:33:42.617Z,98191.91
2022-11-02T05:36:14.426Z,98190.63
2022-11-02T05:38:44.617Z,98195.78
2022-11-02T05:41:13.366Z,98201.60
2022-11-02T05:43:41.878Z,98201.45
2022-11-02T05:46:15.088Z,98202.04
2022-11-02T05:48:43.062Z,98207.89
2022-11-02T05:51:11.781Z,98214.41
2022-11-02T05:53:39.812Z,98218.13
2022-11-02T05:56:09.967Z,98214.98
2022-11-02T05:58:38.076Z,98211.63
2022-11-02T06:01:08.703Z,98218.59
2022-11-02T06:03:37.606Z,98229.27
2022-11-02T06:06:07.800Z,98237.81
2022-11-02T06:08:37.915Z,98241.16
2022-11-02T06:11:09.111Z,98239.44
2022-11-02T06:13:37.833Z,98235.83
2022-11-02T06:16:09.609Z,98233.70
2022-11-02T06:18:40.135Z,98239.34
2022-11-02T06:21:08.796Z,98244.77
2022-11-02T06:23:39.661Z,98244.41
2022-11-02T06:26:08.169Z,98246.08
2022-11-02T06:28:36.245Z,98246.23
2022-11-02T06:31:05.930Z,98242.70
2022-11-02T06:33:33.992Z,98244.61
2022-11-02T06:36:02.119Z,98244.17
2022-11-02T06:38:30.181Z,98248.36
2022-11-02T06:41:02.170Z,98246.98
2022-11-02T06:43:32.141Z,98242.50
2022-11-02T06:46:01.938Z,98242.58
2022-11-02T06:48:34.944Z,98242.05
2022-11-02T06:51:05.494Z,98244.58
2022-11-02T06:53:34.367Z,98245.25
2022-11-02T06:56:03.051Z,98246.05
2022-11-02T06:58:31.479Z,98247.06
2022-11-02T07:01:16.402Z,98241.86
2022-11-02T07:03:46.506Z,98246.50
2022-11-02T07:06:14.760Z,98247.58
2022-11-02T07:08:43.046Z,98245.73
2022-11-02T07:11:16.369Z,98243.42
2022-11-02T07:13:45.447Z,98237.81
2022-11-02T07:16:14.311Z,98238.28
2022-11-02T07:18:42.630Z,98233.86
2022-11-02T07:21:13.012Z,98234.11
2022-11-02T07:23:41.400Z,98227.33
2022-11-02T07:26:10.205Z,98231.89
2022-11-02T07:28:38.621Z,98230.65
2022-11-02T07:31:10.377Z,98237.52
2022-11-02T07:33:39.232Z,98238.19
2022-11-02T07:36:08.732Z,98242.30
2022-11-02T07:38:37.173Z,98242.55
2022-11-02T07:41:07.060Z,98246.52
2022-11-02T07:43:36.751Z,98253.20
2022-11-02T07:46:40.260Z,98251.73
2022-11-02T07:49:10.854Z,98252.64
2022-11-02T07:51:38.966Z,98255.77
2022-11-02T07:54:07.009Z,98248.55
2022-11-02T07:56:35.635Z,98242.90
2022-11-02T07:59:04.991Z,98242.81
2022-11-02T08:01:35.168Z,98241.17
2022-11-02T08:04:03.848Z,98239.46
2022-11-02T08:06:34.946Z,98233.46
2022-11-02T08:09:03.500Z,98240.09
2022-11-02T08:11:51.598Z,98244.14
2022-11-02T08:14:19.835Z,98241.95
2022-11-02T08:16:52.359Z,98237.68
2022-11-02T08:19:20.531Z,98238.09
2022-11-02T08:21:48.772Z,98229.35
2022-11-02T08:24:17.784Z,98231.58
2022-11-02T08:26:47.556Z,98233.94
2022-11-02T08:29:19.481Z,98233.73
2022-11-02T08:31:49.878Z,98236.06
2022-11-02T08:34:18.151Z,98231.71
2022-11-02T08:36:46.320Z,98230.05
2022-11-02T08:39:30.153Z,98227.71
2022-11-02T08:41:58.647Z,98231.55
2022-11-02T08:44:26.650Z,98227.71
2022-11-02T08:46:55.925Z,98229.38
2022-11-02T08:49:27.136Z,98227.25
2022-11-02T08:51:55.252Z,98229.34
2022-11-02T08:54:23.503Z,98229.14
2022-11-02T08:56:51.789Z,98231.66
2022-11-02T08:59:20.523Z,98232.29
2022-11-02T09:01:48.693Z,98237.02
2022-11-02T09:04:17.353Z,98236.40
2022-11-02T09:06:45.977Z,98236.15
2022-11-02T09:09:13.976Z,98226.92
2022-11-02T09:11:42.644Z,98227.70
2022-11-02T09:14:11.243Z,98232.77
2022-11-02T09:16:41.621Z,98230.42
2022-11-02T09:19:10.420Z,98230.93
2022-11-02T09:21:38.425Z,98232.88
2022-11-02T09:24:06.804Z,98235.14
2022-11-02T09:26:34.982Z,98233.17
2022-11-02T09:29:03.137Z,98236.40
2022-11-02T09:31:31.344Z,98233.29
2022-11-02T09:33:59.326Z,98235.45
2022-11-02T09:36:27.603Z,98229.98
2022-11-02T09:38:56.028Z,98223.17
2022-11-02T09:41:31.296Z,98221.23
2022-11-02T09:44:18.853Z,98220.10
2022-11-02T09:47:17.688Z,98216.95
2022-11-02T09:49:42.262Z,98213.31
2022-11-02T09:52:21.644Z,98208.23
2022-11-02T09:54:53.386Z,98209.98
2022-11-02T09:57:33.622Z,98214.98
2022-11-02T10:00:02.411Z,98219.53
2022-11-02T10:03:02.710Z,98220.24
2022-11-02T10:06:11.419Z,98218.38
2022-11-02T10:08:55.994Z,98209.09
2022-11-02T10:14:38.013Z,98201.17
2022-11-02T10:17:23.363Z,98199.17
2022-11-02T10:19:55.207Z,98195.91
2022-11-02T10:22:29.138Z,98196.46
2022-11-02T10:25:00.973Z,98191.98
2022-11-02T10:27:33.214Z,98193.14
2022-11-02T10:30:16.255Z,98195.94
2022-11-02T10:32:46.097Z,98191.23
2022-11-02T10:35:37.127Z,98190.94
2022-11-02T10:38:42.732Z,98191.82
2022-11-02T10:41:42.461Z,98188.13
2022-11-02T10:44:13.752Z,98182.30
2022-11-02T10:47:05.369Z,98178.45
2022-11-02T10:49:36.285Z,98172.30
2022-11-02T10:52:05.831Z,98170.48
2022-11-02T10:54:34.873Z,98168.75
2022-11-02T10:57:12.934Z,98165.27
2022-11-02T10:59:41.612Z,98162.55
2022-11-02T11:02:09.688Z,98157.82
2022-11-02T11:04:37.926Z,98157.58
2022-11-02T11:07:13.955Z,98147.36
2022-11-02T11:09:57.812Z,98143.27
2022-11-02T11:12:32.255Z,98140.00
2022-11-02T11:20:44.954Z,98128.90
2022-11-02T11:23:21.715Z,98131.06
2022-11-02T11:26:06.558Z,98134.58
2022-11-02T11:28:43.101Z,98138.70
2022-11-02T11:31:17.673Z,98145.39
2022-11-02T11:33:53.994Z,98136.27
2022-11-02T11:36:28.990Z,98144.66
2022-11-02T11:39:07.037Z,98139.00
2022-11-02T11:41:41.140Z,98134.21
2022-11-02T11:44:18.698Z,98145.70
2022-11-02T11:46:52.657Z,98139.98
2022-11-02T11:49:41.669Z,98138.84
2022-11-02T11:52:30.959Z,98143.94
2022-11-02T11:55:21.009Z,98146.55
2022-11-02T11:58:35.077Z,98143.77
2022-11-02T12:01:16.730Z,98149.41
2022-11-02T12:04:01.653Z,98152.89
2022-11-02T12:06:36.383Z,98149.95
2022-11-02T12:09:24.113Z,98155.17
2022-11-02T12:11:55.748Z,98156.19
2022-11-02T12:14:43.550Z,98157.09
2022-11-02T12:17:30.372Z,98168.98
2022-11-02T12:20:24.488Z,98167.06
2022-11-02T12:23:19.610Z,98173.13
2022-11-02T12:26:20.071Z,98169.38
2022-11-02T12:29:25.624Z,98164.11
2022-11-02T12:32:10.208Z,98161.11
2022-11-02T12:35:30.423Z,98164.38
2022-11-02T12:38:36.800Z,98166.38
2022-11-02T12:41:09.472Z,98161.61
2022-11-02T12:43:48.901Z,98159.04
2022-11-02T12:46:42.291Z,98159.25
2022-11-02T12:50:10.406Z,98153.58
2022-11-02T12:53:22.615Z,98145.03
2022-11-02T12:55:56.502Z,98144.59
2022-11-02T12:58:29.389Z,98145.48
2022-11-02T13:01:13.995Z,98143.98
2022-11-02T13:04:01.146Z,98142.26
2022-11-02T13:06:41.158Z,98142.09
2022-11-02T13:09:31.053Z,98135.69
2022-11-02T13:12:13.493Z,98134.63
2022-11-02T13:14:47.561Z,98132.61
2022-11-02T13:17:22.650Z,98130.27
2022-11-02T13:19:55.253Z,98131.08
2022-11-02T13:22:44.235Z,98132.88
2022-11-02T13:25:26.255Z,98128.46
2022-11-02T13:28:05.669Z,98132.13
2022-11-02T13:30:35.114Z,98127.89
2022-11-02T13:33:16.486Z,98126.16
2022-11-02T13:35:46.295Z,98128.42
2022-11-02T13:38:41.279Z,98129.63
2022-11-02T13:41:28.651Z,98126.79
2022-11-02T13:44:23.007Z,98126.38
2022-11-02T13:47:27.739Z,98122.33
2022-11-02T13:50:01.760Z,98117.10
2022-11-02T13:52:46.015Z,98117.74
2022-11-02T13:55:20.442Z,98117.14
2022-11-02T13:57:54.444Z,98121.31
2022-11-02T14:00:24.096Z,98124.82
2022-11-02T14:03:01.047Z,98124.54
2022-11-02T14:05:35.152Z,98134.45
2022-11-02T14:08:07.115Z,98135.89
2022-11-02T14:10:41.175Z,98136.58
2022-11-02T14:13:18.054Z,98138.95
2022-11-02T14:15:53.213Z,98138.46
2022-11-02T14:18:31.746Z,98141.61
2022-11-02T14:21:38.261Z,98143.77
2022-11-02T14:24:35.481Z,98145.36
2022-11-02T14:27:13.830Z,98145.84
2022-11-02T14:29:42.912Z,98149.73
2022-11-02T14:32:17.174Z,98150.02
2022-11-02T14:34:55.090Z,98140.49
2022-11-02T14:37:57.829Z,98138.77
2022-11-02T14:40:51.961Z,98136.77
2022-11-02T14:43:39.991Z,98139.27
2022-11-02T14:46:25.601Z,98142.35
2022-11-02T14:49:00.022Z,98139.75
2022-11-02T14:51:34.636Z,98143.91
2022-11-02T14:54:20.627Z,98141.89
2022-11-02T14:57:06.927Z,98142.10
2022-11-02T15:00:01.804Z,98147.02
2022-11-02T15:02:36.065Z,98146.92
2022-11-02T15:05:09.073Z,98149.02
2022-11-02T15:07:45.892Z,98152.06
2022-11-02T15:10:21.778Z,98158.70
2022-11-02T15:12:50.685Z,98166.48
2022-11-02T15:15:33.850Z,98170.64
2022-11-02T15:18:31.503Z,98171.05
2022-11-02T15:21:18.165Z,98171.45
2022-11-02T15:23:53.020Z,98176.06
2022-11-02T15:26:43.077Z,98180.77
2022-11-02T15:29:47.002Z,98190.86
2022-11-02T15:32:24.427Z,98191.25
2022-11-02T15:34:55.748Z,98188.51
2022-11-02T15:37:50.532Z,98191.46
2022-11-02T15:40:50.523Z,98191.46
2022-11-02T15:43:43.285Z,98193.29
2022-11-02T15:46:44.217Z,98203.92
2022-11-02T15:49:24.541Z,98207.77
2022-11-02T15:52:02.955Z,98204.50
2022-11-02T15:54:53.543Z,98208.38
2022-11-02T15:57:56.856Z,98212.12
2022-11-02T16:00:35.412Z,98216.02
2022-11-02T16:03:09.105Z,98218.42
2022-11-02T16:05:47.741Z,98222.80
2022-11-02T16:08:34.231Z,98221.48
2022-11-02T16:11:17.536Z,98228.70
2022-11-02T16:16:49.754Z,98244.02
2022-11-02T16:19:22.020Z,98246.71
2022-11-02T16:21:50.659Z,98257.34
2022-11-02T16:24:20.104Z,98256.05
2022-11-02T16:26:49.230Z,98255.58
2022-11-02T16:29:30.585Z,98254.80
2022-11-02T16:32:00.100Z,98252.60
2022-11-02T16:34:31.529Z,98258.61
2022-11-02T16:37:06.015Z,98259.88
2022-11-02T16:39:42.204Z,98266.80
2022-11-02T16:42:21.287Z,98266.89
2022-11-02T16:44:59.852Z,98269.70
2022-11-02T16:47:34.556Z,98270.45
2022-11-02T16:50:04.981Z,98272.21
2022-11-02T16:52:36.402Z,98273.67
2022-11-02T16:55:36.997Z,98268.90
2022-11-02T16:58:10.210Z,98272.40
2022-11-02T17:00:38.583Z,98279.80
2022-11-02T17:03:12.402Z,98276.41
2022-11-02T17:05:42.904Z,98278.61
2022-11-02T17:08:35.782Z,98282.84
2022-11-02T17:11:07.068Z,98288.61
2022-11-02T17:13:38.587Z,98291.68
2022-11-02T17:16:10.690Z,98291.09
2022-11-02T17:18:39.546Z,98290.71
2022-11-02T17:21:14.474Z,98293.17
2022-11-02T17:23:47.753Z,98294.21
2022-11-02T17:26:37.677Z,98291.19
2022-11-02T17:29:27.404Z,98295.79
2022-11-02T17:32:01.173Z,98299.15
2022-11-02T17:34:29.314Z,98302.34
2022-11-02T17:36:57.633Z,98312.17
2022-11-02T17:39:26.507Z,98312.15
2022-11-02T17:42:16.079Z,98310.66
2022-11-02T17:44:45.702Z,98313.05
2022-11-02T17:47:17.866Z,98315.08
2022-11-02T17:49:48.925Z,98314.41
2022-11-02T17:52:17.555Z,98314.73
2022-11-02T17:54:45.555Z,98312.36
2022-11-02T17:57:16.284Z,98315.73
2022-11-02T17:59:44.436Z,98315.11
2022-11-02T18:02:19.065Z,98309.20
2022-11-02T18:04:47.251Z,98308.42
2022-11-02T18:07:15.790Z,98310.90
2022-11-02T18:09:43.922Z,98307.61
2022-11-02T18:12:15.952Z,98306.98
2022-11-02T18:14:44.101Z,98305.85
2022-11-02T18:17:14.154Z,98301.31
2022-11-02T18:19:42.151Z,98295.05
2022-11-02T18:22:12.240Z,98294.80
2022-11-02T18:24:40.362Z,98298.60
2022-11-02T18:27:09.222Z,98301.20
2022-11-02T18:29:38.916Z,98304.73
2022-11-02T18:32:07.667Z,98303.30
2022-11-02T18:34:35.834Z,98303.24
2022-11-02T18:37:03.829Z,98299.32
2022-11-02T18:39:32.496Z,98295.40
2022-11-02T18:42:01.884Z,98289.99
2022-11-02T18:44:29.850Z,98289.23
2022-11-02T18:46:59.381Z,98288.33
2022-11-02T18:49:29.641Z,98288.52
2022-11-02T18:51:58.491Z,98287.27
2022-11-02T18:54:26.379Z,98286.89
2022-11-02T18:56:55.095Z,98286.55
2022-11-02T18:59:23.136Z,98296.14
2022-11-02T19:01:51.154Z,98300.85
2022-11-02T19:04:19.551Z,98303.70
2022-11-02T19:07:06.526Z,98301.52
2022-11-02T19:09:36.935Z,98303.00
2022-11-02T19:12:27.260Z,98309.10
2022-11-02T19:14:56.331Z,98316.28
2022-11-02T19:17:25.472Z,98320.90
2022-11-02T19:19:53.926Z,98312.46
2022-11-02T19:22:24.577Z,98311.77
2022-11-02T19:24:53.252Z,98316.65
2022-11-02T19:27:24.452Z,98322.88
2022-11-02T19:29:52.888Z,98321.52
2022-11-02T19:32:21.092Z,98326.17
2022-11-02T19:34:49.559Z,98326.94
2022-11-02T19:37:19.370Z,98329.96
2022-11-02T19:39:47.439Z,98326.03
2022-11-02T19:42:15.530Z,98325.58
2022-11-02T19:44:46.095Z,98325.50
2022-11-02T19:47:13.977Z,98325.54
2022-11-02T19:49:41.815Z,98326.92
2022-11-02T19:52:12.086Z,98324.77
2022-11-02T19:54:40.417Z,98329.54
2022-11-02T19:57:08.539Z,98329.50
2022-11-02T19:59:37.273Z,98326.70
2022-11-02T20:02:07.342Z,98325.16
2022-11-02T20:04:41.050Z,98324.94
2022-11-02T20:07:13.176Z,98327.58
2022-11-02T20:09:41.828Z,98331.86
2022-11-02T20:12:09.793Z,98333.33
2022-11-02T20:14:38.444Z,98334.12
2022-11-02T20:19:55.360Z,98334.48
2022-11-02T20:22:23.387Z,98334.21
2022-11-02T20:24:51.275Z,98341.61
2022-11-02T20:27:19.312Z,98342.91
2022-11-02T20:29:50.004Z,98344.20
2022-11-02T20:32:20.435Z,98344.85
2022-11-02T20:34:50.293Z,98345.98
2022-11-02T20:37:18.438Z,98346.31
2022-11-02T20:39:47.089Z,98344.26
2022-11-02T20:42:14.927Z,98344.45
2022-11-02T20:44:49.230Z,98340.42
2022-11-02T20:47:17.195Z,98343.52
2022-11-02T20:49:50.639Z,98339.98
2022-11-02T20:52:21.961Z,98340.71
2022-11-02T20:54:50.035Z,98342.10
2022-11-02T20:57:19.191Z,98338.17
2022-11-02T20:59:47.276Z,98333.00
2022-11-02T21:02:15.257Z,98333.63
2022-11-02T21:04:43.339Z,98332.38
2022-11-02T21:07:11.340Z,98336.40
2022-11-02T21:09:39.350Z,98338.21
2022-11-02T21:12:26.150Z,98337.33
2022-11-02T21:14:54.131Z,98337.27
2022-11-02T21:17:22.067Z,98339.65
2022-11-02T21:19:57.857Z,98343.52
2022-11-02T21:22:30.967Z,98342.67
2022-11-02T21:24:58.832Z,98347.12
2022-11-02T21:27:26.750Z,98348.45
2022-11-02T21:29:56.088Z,98349.08
2022-11-02T21:32:23.993Z,98348.61
2022-11-02T21:34:55.997Z,98346.09
2022-11-02T21:37:24.012Z,98347.36
2022-11-02T21:39:51.959Z,98349.79
2022-11-02T21:42:19.816Z,98350.95
2022-11-02T21:44:47.755Z,98353.96
2022-11-02T21:47:15.668Z,98353.10
2022-11-02T21:49:43.655Z,98351.30
2022-11-02T21:52:11.573Z,98352.88
2022-11-02T21:54:39.602Z,98351.58
2022-11-02T21:57:09.728Z,98351.86
2022-11-02T21:59:37.683Z,98355.75
2022-11-02T22:02:05.633Z,98359.02
2022-11-02T22:04:33.741Z,98354.90
2022-11-02T22:07:03.208Z,98357.95
2022-11-02T22:09:31.509Z,98360.59
2022-11-02T22:12:18.159Z,98368.08
2022-11-02T22:14:46.161Z,98370.35
2022-11-02T22:17:43.358Z,98377.81
2022-11-02T22:20:04.194Z,98377.30
2022-11-02T22:22:32.149Z,98377.59
2022-11-02T22:25:00.043Z,98378.42
2022-11-02T22:27:27.906Z,98379.81
2022-11-02T22:29:55.805Z,98376.85
2022-11-02T22:32:23.687Z,98377.91
2022-11-02T22:34:51.759Z,98375.88
2022-11-02T22:37:38.053Z,98379.23
2022-11-02T22:40:06.823Z,98380.44
2022-11-02T22:42:38.306Z,98385.34
2022-11-02T22:45:10.255Z,98390.27
2022-11-02T22:47:38.120Z,98388.34
2022-11-02T22:50:06.636Z,98387.73
2022-11-02T22:52:34.477Z,98389.96
2022-11-02T22:55:02.540Z,98390.27
2022-11-02T22:57:30.425Z,98390.30
2022-11-02T22:59:58.342Z,98391.86
2022-11-02T23:02:26.334Z,98391.53
2022-11-02T23:04:54.304Z,98385.26
2022-11-02T23:07:22.220Z,98383.50
2022-11-02T23:09:50.112Z,98386.42
2022-11-02T23:12:18.163Z,98387.85
2022-11-02T23:14:46.058Z,98393.98
2022-11-02T23:17:13.897Z,98391.05
2022-11-02T23:19:41.825Z,98392.59
2022-11-02T23:22:30.233Z,98392.15
2022-11-02T23:25:14.216Z,98393.98
2022-11-02T23:28:13.889Z,98398.15
2022-11-02T23:31:01.470Z,98393.32
2022-11-02T23:33:32.462Z,98397.95
2022-11-02T23:36:13.904Z,98403.43
2022-11-02T23:39:03.298Z,98406.02
2022-11-02T23:41:34.062Z,98406.53
2022-11-02T23:44:14.758Z,98411.32
2022-11-02T23:46:50.624Z,98415.70
2022-11-02T23:49:18.610Z,98420.45
2022-11-02T23:52:05.379Z,98426.23
2022-11-02T23:54:51.716Z,98425.98
2022-11-02T23:57:20.989Z,98426.05
2022-11-02T23:59:50.015Z,98427.55
